Overview Statistics Trail Chart Weather Telemetry Raw packets
 

This is the latest recevied telemetry packets stored in our database for station/object DD8XX-12. If no packets are shown the sender has not sent any telemetry packets the latest 10 day(s).

Telemetry packets is used to share measurements like repeteater parameters, battery voltage, radiation readings (or any other measurements).

<< 1 2 3 4 >>
Time Press* Temp.in* Hum* QNH* Temp.out*
1788565163 936.3 hPa 24.1 C deg 0 % 1018.3 hPa 0 C deg
1788563333 936.3 hPa 24.1 C deg 0 % 1018.3 hPa 0 C deg
1788561503 936.2 hPa 24.1 C deg 0 % 1018.2 hPa 0 C deg
1788559673 936.1 hPa 24.2 C deg 0 % 1018.1 hPa 0 C deg
1788557843 936 hPa 24.2 C deg 0 % 1017.9 hPa 0 C deg
1788556013 935.9 hPa 24.2 C deg 0 % 1017.8 hPa 0 C deg
1788554183 935.8 hPa 24.3 C deg 0 % 1017.6 hPa 0 C deg
1788552353 935.9 hPa 24.4 C deg 0 % 1017.7 hPa 0 C deg
1788550523 935.7 hPa 24.6 C deg 0 % 1017.5 hPa 0 C deg
1788548693 935.3 hPa 24.8 C deg 0 % 1017 hPa 0 C deg
1788546863 935 hPa 25.1 C deg 0 % 1016.6 hPa 0 C deg
1788545033 934.7 hPa 25 C deg 0 % 1016.2 hPa 0 C deg
1788543202 934.2 hPa 24.9 C deg 0 % 1015.7 hPa 0 C deg
1788539542 933.7 hPa 24.7 C deg 0 % 1015.2 hPa 0 C deg
1788537712 933.6 hPa 24.8 C deg 0 % 1015.2 hPa 0 C deg
1788535882 933.8 hPa 24.8 C deg 0 % 1015.3 hPa 0 C deg
1788534052 933.9 hPa 24.8 C deg 0 % 1015.4 hPa 0 C deg
1788532222 934.1 hPa 24.5 C deg 0 % 1015.8 hPa 0 C deg
1788530392 934.4 hPa 24.4 C deg 0 % 1016 hPa 0 C deg
1788528562 934.7 hPa 24.4 C deg 0 % 1016.4 hPa 0 C deg
1788526732 935.2 hPa 24.4 C deg 0 % 1016.9 hPa 0 C deg
1788524902 935.5 hPa 24.6 C deg 0 % 1017.2 hPa 0 C deg
1788523072 935.9 hPa 25.2 C deg 0 % 1017.5 hPa 0 C deg
1788521242 936.4 hPa 24.7 C deg 0 % 1018.2 hPa 0 C deg
1788519412 937 hPa 24.6 C deg 0 % 1018.8 hPa 0 C deg
*Used Equation Coefficients:
Press: 0, 1, 0
Temp.in: 0, 1, 0
Hum: 0, 1, 0
QNH: 0, 1, 0
Temp.out: 0, 1, 0

  • The parameter names for the analog channels will be Value1, Value2, Value3 (up to Value5) if station has not sent a PARAM-packet that specifies the parameter names for each analog channel.
  • Each analog value is a decimal number between 000 and 255 (according to APRS specifications). The receiver use the telemetry equation coefficientsto to restore the original sensor values. If no EQNS-packet with equation coefficients is sent we will show the values as is (this corresponds to the equation coefficients a=0, b=1 and c=0).
    The sent equation coefficients is used in the equation: a * value2 + b * value + c.
  • The units for the analog values will not be shown if station has not sent a UNIT-packet specifying what unit's to use.
  • The parameter names for the digital bits will be Bit1, Bit2, Bit3 (up to Bit8) if station has not sent a PARAM-packet that specifies the parameter names for each digital bit.
  • All bit labels will be named "On" if station has not sent a UNIT-packet that specifies the label of each bit.
  • A bit is considered to be On when the bit is 1 if station has not sent a BITS-packet that specifies another "Bit sense" (a BITS-packet specify the state of the bits that match the BIT labels)